NCAR-RAP Real-Time Weather Data

Output produced by METARs form (26 September 2017  09:14 UTC)
found at http://weather.rap.ucar.edu/surface/
 
KFZY 260854Z AUTO 00000KT 1/4SM FG VV002 19/18 A3002 RMK AO2 SLP163 T01890183 51003
KFZY 260754Z AUTO 00000KT 1/4SM FG VV003 19/19 A3002 RMK AO2 SLP161 T01940189
KFZY 260720Z AUTO 00000KT 1/4SM FG VV003 19/18 A3001 RMK AO2 T01890183
KFZY 260704Z AUTO 00000KT 3/4SM BR CLR 19/19 A3001 RMK AO2 T01940189
KFZY 260702Z AUTO 00000KT 1 1/4SM BR CLR 19/19 A3001 RMK AO2 T01940189
KFZY 260654Z AUTO 00000KT 2SM BR CLR 20/19 A3001 RMK AO2 SLP160 T02000189
KFZY 260647Z AUTO 20003KT 1 1/4SM BR CLR 20/19 A3001 RMK AO2 T02000189
KFZY 260638Z AUTO 00000KT 1/2SM FG CLR 19/19 A3001 RMK AO2 T01940189
KFZY 260629Z AUTO 00000KT 1SM BR CLR 20/19 A3001 RMK AO2 T02000189
KFZY 260617Z AUTO 00000KT 2 1/2SM BR CLR 20/19 A3001 RMK AO2 T02000189
KFZY 260554Z AUTO 00000KT 4SM BR CLR 21/19 A3001 RMK AO2 SLP159 T02060194 10217 20178 55003
KFZY 260550Z AUTO 13003KT 3SM BR CLR 20/19 A3001 RMK AO2
KFZY 260544Z AUTO 14003KT 1 1/4SM BR CLR 19/18 A3001 RMK AO2 T01890183
KFZY 260532Z AUTO 00000KT 1/2SM FG CLR 19/18 A3001 RMK AO2 T01890178
KFZY 260524Z AUTO 00000KT 1SM BR CLR 19/18 A3001 RMK AO2 VIS 1/2V2 1/2 T01940183
KFZY 260510Z AUTO 00000KT 2 1/2SM BR CLR 19/18 A3001 RMK AO2 VIS 1 3/4V3 T01940183
KFZY 260454Z AUTO 00000KT 1 1/2SM BR CLR 19/18 A3001 RMK AO2 SLP159 T01890178 403280156
KFZY 260451Z AUTO 00000KT 1 1/4SM BR CLR 18/18 A3001 RMK AO2
KFZY 260428Z AUTO 00000KT 1/2SM FG CLR 18/17 A3001 RMK AO2 T01780172
KFZY 260418Z AUTO 00000KT 1SM BR CLR 18/17 A3001 RMK AO2 T01780172
KFZY 260409Z AUTO 00000KT 2SM BR CLR 19/18 A3001 RMK AO2 T01890178
KFZY 260359Z AUTO 00000KT 1 1/4SM BR CLR 18/18 A3001 RMK AO2 T01830178
KFZY 260354Z AUTO 00000KT 3/4SM BR CLR 18/17 A3001 RMK AO2 SLP161 T01780172
KFZY 260336Z AUTO 00000KT 3/4SM BR CLR 18/17 A3002 RMK AO2 T01830172
KFZY 260327Z AUTO 00000KT 1 1/4SM BR CLR 18/18 A3002 RMK AO2 T01830178
KFZY 260321Z AUTO 00000KT 3/4SM BR CLR 18/18 A3002 RMK AO2 T01830178
KFZY 260254Z AUTO 00000KT 1SM BR CLR 19/18 A3002 RMK AO2 SLP162 T01890183 56003
KFZY 260250Z AUTO 00000KT 1 3/4SM BR CLR 19/18 A3002 RMK AO2
KFZY 260222Z AUTO 00000KT 3SM BR CLR 20/19 A3002 RMK AO2 T02000194
KFZY 260216Z AUTO 00000KT 1 1/4SM BR CLR 19/19 A3002 RMK AO2 T01940189
KFZY 260210Z AUTO 00000KT 3/4SM BR CLR 19/18 A3002 RMK AO2 T01890178
KFZY 260154Z AUTO 00000KT 1/4SM FG VV003 19/18 A3002 RMK AO2 SLP164 T01890178
KFZY 260145Z AUTO 00000KT 3/4SM BR CLR 19/18 A3002 RMK AO2 T01890178
KFZY 260131Z AUTO 00000KT 1 1/4SM BR CLR 19/18 A3002 RMK AO2 T01940183
KFZY 260112Z AUTO 00000KT 3/4SM BR CLR 19/19 A3003 RMK AO2 T01940189
KFZY 260107Z AUTO 00000KT 1 3/4SM BR CLR 20/19 A3003 RMK AO2 T02000189
KFZY 260054Z AUTO 00000KT 4SM BR CLR 21/19 A3003 RMK AO2 SLP167 T02060194
KFZY 252354Z AUTO 00000KT 6SM BR CLR 22/20 A3003 RMK AO2 SLP168 T02170200 10328 20217 56003
KFZY 252254Z AUTO 00000KT 8SM CLR 24/21 A3004 RMK AO2 SLP169 T02440211
KFZY 252154Z AUTO 01005KT 10SM CLR 29/21 A3004 RMK AO2 SLP168 T02890211
KFZY 252054Z AUTO 01007KT 10SM CLR 31/22 A3004 RMK AO2 SLP170 T03060222 56011
KFZY 251954Z AUTO VRB03KT 10SM CLR 32/18 A3004 RMK AO2 SLP171 T03220183
KFZY 251854Z AUTO 00000KT 10SM CLR 32/19 A3006 RMK AO2 SLP176 T03170189
KFZY 251754Z AUTO 08003KT 10SM CLR 31/20 A3007 RMK AO2 SLP181 T03110200 10311 20183 58012
KFZY 251654Z AUTO 17005KT 10SM CLR 30/21 A3009 RMK AO2 SLP188 T03000206
KFZY 251554Z AUTO 19003KT 10SM CLR 28/21 A3010 RMK AO2 SLP190 T02830206
KFZY 251454Z AUTO 15003KT 8SM CLR 26/21 A3011 RMK AO2 SLP193 T02610206 50001
KFZY 251354Z AUTO VRB03KT 6SM HZ CLR 23/20 A3012 RMK AO2 SLP197 T02330200
KFZY 251323Z AUTO 00000KT 4SM BR SCT002 21/20 A3012 RMK AO2 T02110200
KFZY 251312Z AUTO 00000KT 3SM BR BKN002 21/20 A3012 RMK AO2 T02060200
KFZY 251305Z AUTO 00000KT 1 1/4SM BR OVC001 20/19 A3012 RMK AO2 T02000194
KFZY 251254Z AUTO 00000KT 3/4SM BR OVC001 19/19 A3012 RMK AO2 SLP197 T01940189
KFZY 251154Z AUTO 00000KT M1/4SM FG VV002 18/18 A3011 RMK AO2 SLP194 T01830178 10183 20156 53009
KFZY 251137Z AUTO 00000KT 1/4SM FG OVC002 18/18 A3011 RMK AO2 T01830178
KFZY 251130Z AUTO 00000KT 1SM BR BKN002 18/17 A3011 RMK AO2 T01830172
KFZY 251124Z AUTO 00000KT 2SM BR BKN002 18/17 A3011 RMK AO2 T01780172
KFZY 251109Z AUTO 12003KT 1 1/4SM BR FEW002 17/17 A3010 RMK AO2 T01720167
KFZY 251105Z AUTO 00000KT 3/4SM BR CLR 17/17 A3010 RMK AO2 T01720167
KFZY 251054Z AUTO 00000KT 3/4SM BR VV006 17/16 A3010 RMK AO2 SLP191 T01670161
KFZY 251051Z AUTO 00000KT 3/4SM BR VV006 17/16 A3010 RMK AO2
KFZY 251047Z AUTO 00000KT 1 1/4SM BR CLR 16/16 A3010 RMK AO2 T01610161
KFZY 251038Z AUTO 00000KT 2SM BR CLR 17/17 A3010 RMK AO2 T01720167
KFZY 251019Z AUTO 00000KT 1 1/4SM BR CLR 17/17 A3009 RMK AO2 T01720167
KFZY 250954Z AUTO 00000KT 1/4SM FG VV004 16/15 A3008 RMK AO2 SLP185 T01560150
KFZY 250939Z AUTO 00000KT 3/4SM BR CLR 16/15 A3008 RMK AO2 T01560150
KFZY 250934Z AUTO 00000KT 1 1/4SM BR CLR 16/16 A3008 RMK AO2 T01610156
KFZY 250911Z AUTO 00000KT 1/2SM FG CLR 16/16 A3008 RMK AO2 T01610156
KFZY 250854Z AUTO 00000KT 1/4SM FG VV003 16/16 A3008 RMK AO2 SLP184 T01610156 56004
KFZY 250843Z AUTO 00000KT 1/4SM FG VV003 17/16 A3008 RMK AO2 T01670161
KFZY 250826Z AUTO 00000KT 1/4SM FG CLR 17/16 A3008 RMK AO2 T01670161
KFZY 250754Z AUTO 00000KT 1/4SM FG VV003 16/16 A3008 RMK AO2 SLP184 T01610161
KFZY 250739Z AUTO 00000KT 1/4SM FG VV004 16/16 A3008 RMK AO2 T01610156
KFZY 250716Z AUTO 00000KT 3/4SM BR CLR 17/16 A3009 RMK AO2 T01670161
KFZY 250712Z AUTO 00000KT 1 1/4SM BR CLR 17/16 A3009 RMK AO2 T01670161
KFZY 250658Z AUTO 00000KT 3/4SM BR CLR 17/16 A3009 RMK AO2 T01670161
KFZY 250654Z AUTO 00000KT 1 1/4SM BR CLR 17/16 A3009 RMK AO2 SLP187 T01670156
KFZY 250643Z AUTO 00000KT 1SM BR CLR 17/16 A3009 RMK AO2 T01670161
KFZY 250615Z AUTO 00000KT 1 1/4SM BR CLR 18/17 A3010 RMK AO2 T01780167
KFZY 250554Z AUTO 00000KT 1/2SM FG CLR 17/16 A3009 RMK AO2 SLP188 T01720161 10211 20167 57002
KFZY 250509Z AUTO 00000KT 1/4SM FG CLR 17/17 A3009 RMK AO2 T01720167
KFZY 250454Z AUTO 00000KT 1/2SM FG VV003 18/17 A3009 RMK AO2 SLP187 T01780172 403170156
KFZY 250448Z AUTO 00000KT 1 1/4SM BR CLR 17/17 A3009 RMK AO2
KFZY 250354Z AUTO 00000KT 1/2SM FG CLR 18/18 A3010 RMK AO2 SLP189 T01780178
KFZY 250333Z AUTO 00000KT 3/4SM BR CLR 18/17 A3010 RMK AO2 T01780172
KFZY 250328Z AUTO 00000KT 1 1/4SM BR CLR 18/17 A3010 RMK AO2 T01830172
KFZY 250316Z AUTO 00000KT 3/4SM BR CLR 18/18 A3010 RMK AO2 T01830178
KFZY 250302Z AUTO 00000KT 1 1/4SM BR CLR 18/18 A3010 RMK AO2 T01830178
KFZY 250254Z AUTO 00000KT 1/2SM FG CLR 18/17 A3010 RMK AO2 SLP189 T01830172 50002
KFZY 250226Z AUTO 00000KT 3/4SM BR CLR 19/18 A3010 RMK AO2 T01890178
KFZY 250211Z AUTO 00000KT 1 3/4SM BR CLR 19/18 A3010 RMK AO2 T01890178
KFZY 250154Z AUTO 00000KT 3SM BR CLR 19/18 A3010 RMK AO2 SLP190 T01890178
KFZY 250054Z AUTO 00000KT 5SM BR CLR 19/18 A3010 RMK AO2 SLP191 T01940183
KFZY 242354Z AUTO 00000KT 8SM CLR 21/19 A3009 RMK AO2 SLP188 T02110189 10317 20211 53002
KFZY 242254Z AUTO 00000KT 10SM CLR 24/20 A3008 RMK AO2 SLP184 T02390200
KFZY 242154Z AUTO 29004KT 10SM CLR 28/19 A3008 RMK AO2 SLP185 T02780189
KFZY 242054Z AUTO 29007KT 10SM CLR 29/19 A3009 RMK AO2 SLP185 T02890189 58008
KFZY 241954Z AUTO 32005KT 10SM CLR 31/20 A3010 RMK AO2 SLP189 T03110200
KFZY 241854Z AUTO VRB05KT 10SM CLR 31/20 A3010 RMK AO2 SLP191 T03110200
KFZY 241754Z AUTO 00000KT 10SM CLR 31/19 A3011 RMK AO2 SLP194 T03060194 10306 20183 58013
KFZY 241654Z AUTO 27003KT 10SM CLR 29/20 A3013 RMK AO2 SLP199 T02940200
KFZY 241554Z AUTO 31005KT 10SM CLR 28/20 A3014 RMK AO2 SLP205 T02830200
KFZY 241454Z AUTO 32005KT 10SM CLR 27/20 A3015 RMK AO2 SLP207 T02720200 50001
KFZY 241354Z AUTO 31004KT 10SM CLR 24/19 A3016 RMK AO2 SLP210 T02440189
KFZY 241254Z AUTO 00000KT 10SM CLR 22/18 A3015 RMK AO2 SLP209 T02170178
KFZY 241154Z AUTO 00000KT 6SM BR CLR 18/17 A3014 RMK AO2 SLP206 T01830172 10183 20156 53008
KFZY 241140Z AUTO 00000KT 6SM BR CLR 17/16 A3014 RMK AO2 T01720161
KFZY 241133Z AUTO 00000KT 2SM BR CLR 17/16 A3014 RMK AO2 T01670156
KFZY 241121Z AUTO 00000KT 1SM BR CLR 16/16 A3014 RMK AO2 T01610156
KFZY 241111Z AUTO 00000KT 2SM BR CLR 16/16 A3014 RMK AO2 T01610156
KFZY 241106Z AUTO 00000KT 1/2SM FG CLR 17/16 A3014 RMK AO2 T01670156
KFZY 241059Z AUTO 00000KT 1 1/4SM BR CLR 16/16 A3013 RMK AO2 T01560156
KFZY 241054Z AUTO 00000KT 4SM BR CLR 17/17 A3013 RMK AO2 SLP202 T01720167
KFZY 240954Z AUTO 00000KT 6SM BR CLR 18/17 A3012 RMK AO2 SLP198 T01830172
KFZY 240854Z AUTO 00000KT 6SM BR CLR 18/17 A3012 RMK AO2 SLP197 T01780167 51005
KFZY 240754Z AUTO 00000KT 7SM CLR 18/17 A3012 RMK AO2 SLP196 T01780167
KFZY 240654Z AUTO 00000KT 8SM CLR 17/16 A3011 RMK AO2 SLP194 T01720161
KFZY 240554Z AUTO 00000KT 6SM BR CLR 16/14 A3010 RMK AO2 SLP191 T01560144 10194 20156 52003
KFZY 240454Z AUTO 00000KT 7SM CLR 16/15 A3010 RMK AO2 SLP191 T01610150 402940128
KFZY 240354Z AUTO 00000KT 8SM CLR 17/16 A3010 RMK AO2 SLP188 T01670156
KFZY 240254Z AUTO 00000KT 8SM CLR 17/16 A3009 RMK AO2 SLP189 T01670156 53006
KFZY 240154Z AUTO 00000KT 10SM CLR 17/16 A3009 RMK AO2 SLP186 T01720156
KFZY 240054Z AUTO 00000KT 10SM CLR 18/16 A3008 RMK AO2 SLP185 T01830161
KFZY 232354Z AUTO 00000KT 10SM CLR 19/16 A3008 RMK AO2 RAB31E43 SLP184 P0000 60000 T01940161 10294 20194 55001
KFZY 232254Z AUTO 00000KT 10SM CLR 23/15 A3007 RMK AO2 SLP181 T02330150
KFZY 232154Z AUTO 29006KT 10SM CLR 26/14 A3008 RMK AO2 SLP183 T02610144
KFZY 232054Z AUTO 29006KT 10SM CLR 28/13 A3008 RMK AO2 SLP184 T02780133 56014
KFZY 231954Z AUTO 27009KT 10SM CLR 29/10 A3009 RMK AO2 SLP187 T02890100
KFZY 231854Z AUTO 29006KT 10SM CLR 29/12 A3011 RMK AO2 SLP193 T02890122
KFZY 231754Z AUTO 31008KT 10SM CLR 29/13 A3012 RMK AO2 SLP198 T02890133 10289 20144 56007
KFZY 231654Z AUTO VRB03KT 10SM CLR 27/13 A3013 RMK AO2 SLP199 T02720133
KFZY 231554Z AUTO 30004KT 10SM CLR 27/14 A3013 RMK AO2 SLP201 T02670144
KFZY 231454Z AUTO 00000KT 10SM CLR 24/14 A3014 RMK AO2 SLP205 T02390144 50005
KFZY 231354Z AUTO 00000KT 10SM CLR 21/15 A3014 RMK AO2 SLP206 T02110150
KFZY 231254Z AUTO VRB03KT 10SM CLR 18/16 A3014 RMK AO2 SLP207 T01780156
KFZY 231205Z AUTO 15003KT 3SM BR CLR 15/14 A3012 RMK AO2 T01500144
KFZY 231201Z AUTO 14003KT 1 3/4SM BR CLR 15/14 A3012 RMK AO2 T01500144
KFZY 231154Z AUTO 00000KT 1SM BR CLR 14/13 A3013 RMK AO2 SLP201 T01440133 10156 20128 53018
KFZY 231131Z AUTO 00000KT 1/2SM FG CLR 13/12 A3013 RMK AO2 T01330122
KFZY 231116Z AUTO 00000KT 1SM BR CLR 13/13 A3012 RMK AO2 T01330128
KFZY 231101Z AUTO 00000KT 1 3/4SM BR CLR 13/13 A3011 RMK AO2 T01330128
KFZY 231054Z AUTO 00000KT 3SM BR CLR 13/13 A3011 RMK AO2 SLP194 T01330128
KFZY 231021Z AUTO 00000KT 7SM SCT002 14/14 A3009 RMK AO2 T01440139
KFZY 231010Z AUTO 15003KT 3SM BR BKN002 15/14 A3008 RMK AO2 T01500144
KFZY 231007Z AUTO 16003KT 1 1/4SM BR BKN002 15/14 A3008 RMK AO2 T01500144
KFZY 230954Z AUTO 19003KT 1/4SM FG VV002 15/15 A3008 RMK AO2 SLP185 T01500150
KFZY 230854Z AUTO 00000KT 1/4SM FG VV002 14/14 A3007 RMK AO2 SLP182 T01440139 55002
KFZY 230754Z AUTO 00000KT 1/4SM FG VV001 13/13 A3006 RMK AO2 SLP177 T01330128
KFZY 230721Z AUTO 00000KT 1/4SM FG VV002 13/13 A3005 RMK AO2 T01330128
KFZY 230713Z AUTO 00000KT 1SM BR VV002 14/13 A3005 RMK AO2 T01440133
KFZY 230706Z AUTO 00000KT 3/4SM BR VV002 15/14 A3005 RMK AO2 T01500144
KFZY 230658Z AUTO 00000KT 1SM BR VV002 16/14 A3006 RMK AO2 T01560144
KFZY 230654Z AUTO 00000KT 2SM BR BKN002 15/14 A3006 RMK AO2 SLP179 T01500144
KFZY 230651Z AUTO 00000KT 1 1/4SM BR BKN002 15/14 A3007 RMK AO2
KFZY 230554Z AUTO 00000KT 3/4SM BR VV002 16/15 A3008 RMK AO2 SLP184 T01560150 10178 20133 58003
KFZY 230534Z AUTO 00000KT 1 1/4SM BR BKN002 15/14 A3009 RMK AO2 T01500144
KFZY 230454Z AUTO 00000KT 1/4SM FG VV003 16/15 A3009 RMK AO2 SLP187 T01560150 402720106
KFZY 230436Z AUTO 00000KT 3/4SM BR CLR 16/15 A3009 RMK AO2 T01560150
KFZY 230433Z AUTO 00000KT 1 3/4SM BR CLR 16/15 A3009 RMK AO2 T01560150
KFZY 230420Z AUTO 00000KT 8SM CLR 15/14 A3009 RMK AO2 T01500139
KFZY 230413Z AUTO 00000KT 2 1/2SM BR CLR 14/13 A3010 RMK AO2 T01440133
KFZY 230411Z AUTO 00000KT 1SM BR CLR 14/13 A3010 RMK AO2 T01440133
KFZY 230403Z AUTO 00000KT 3/4SM BR VV002 14/14 A3010 RMK AO2 T01440139
KFZY 230358Z AUTO 00000KT 1 3/4SM BR FEW002 14/13 A3009 RMK AO2 T01390133
KFZY 230354Z AUTO 00000KT 1/2SM FG VV002 14/14 A3009 RMK AO2 SLP188 T01440139
KFZY 230345Z AUTO 00000KT 1/4SM FG VV002 13/13 A3009 RMK AO2 T01330133
KFZY 230329Z AUTO 00000KT 3/4SM BR CLR 15/14 A3009 RMK AO2 T01500144
KFZY 230327Z AUTO 00000KT 1 1/4SM BR CLR 15/14 A3009 RMK AO2 T01500139
KFZY 230310Z AUTO 00000KT 3SM BR CLR 16/15 A3009 RMK AO2 T01560150
KFZY 230305Z AUTO 00000KT 1 1/4SM BR CLR 15/14 A3009 RMK AO2 VIS 1/4V4 T01500144
KFZY 230254Z AUTO 00000KT 1/2SM FG CLR 14/14 A3009 RMK AO2 SLP188 T01440139 53002
KFZY 230247Z AUTO 00000KT 3/4SM BR CLR 15/14 A3009 RMK AO2 T01500139
KFZY 230245Z AUTO 00000KT 1 1/4SM BR CLR 15/14 A3009 RMK AO2 T01500144
KFZY 230154Z AUTO 00000KT 10SM CLR 17/16 A3008 RMK AO2 SLP186 T01670156
KFZY 230054Z AUTO 00000KT 10SM CLR 17/15 A3009 RMK AO2 SLP188 T01720150
KFZY 222354Z AUTO 29003KT 10SM CLR 18/15 A3008 RMK AO2 SLP187 T01780150 10272 20178 53003
KFZY 222254Z AUTO 29004KT 10SM CLR 20/14 A3007 RMK AO2 SLP182 T02000144
KFZY 222154Z AUTO 30004KT 10SM CLR 24/15 A3007 RMK AO2 SLP181 T02390150
KFZY 222054Z AUTO 31007KT 10SM CLR 25/14 A3007 RMK AO2 SLP182 T02500144 56013
KFZY 221954Z AUTO 32007KT 10SM CLR 26/16 A3009 RMK AO2 SLP186 T02610156
KFZY 221854Z AUTO 29005KT 10SM CLR 27/16 A3010 RMK AO2 SLP191 T02670156
KFZY 221754Z AUTO 28006KT 10SM CLR 27/15 A3011 RMK AO2 SLP195 T02670150 10272 20128 57009
KFZY 221654Z AUTO 00000KT 10SM CLR 26/11 A3012 RMK AO2 SLP199 T02560111
KFZY 221554Z AUTO 00000KT 10SM CLR 25/12 A3013 RMK AO2 SLP201 T02500122
KFZY 221454Z AUTO 27003KT 10SM CLR 22/15 A3014 RMK AO2 SLP205 T02220150 50002
KFZY 221354Z AUTO 31004KT 10SM CLR 20/14 A3015 RMK AO2 SLP207 T02000144
KFZY 221254Z AUTO 00000KT 6SM BR FEW002 18/16 A3014 RMK AO2 SLP204 T01830161
KFZY 221246Z AUTO 00000KT 6SM BR SCT002 18/16 A3014 RMK AO2 T01780161
KFZY 221234Z AUTO 00000KT 3SM BR BKN002 17/16 A3014 RMK AO2 T01720156
KFZY 221224Z AUTO 00000KT 1 3/4SM BR BKN002 16/15 A3013 RMK AO2 T01610150
KFZY 221219Z AUTO 00000KT 8SM BKN002 16/14 A3014 RMK AO2 T01560144
KFZY 221208Z AUTO 00000KT 8SM SCT003 15/14 A3014 RMK AO2 T01500139
KFZY 221154Z AUTO 00000KT 4SM BR CLR 13/12 A3013 RMK AO2 SLP204 T01280122 10144 20106 53005
KFZY 221147Z AUTO 00000KT 4SM BR CLR 12/12 A3013 RMK AO2 T01220117
KFZY 221140Z AUTO 00000KT 2 1/2SM BR CLR 12/11 A3013 RMK AO2 T01170106
KFZY 221128Z AUTO 00000KT 1 3/4SM BR CLR 11/11 A3013 RMK AO2 T01110106
KFZY 221113Z AUTO 00000KT 3SM BR CLR 12/11 A3013 RMK AO2 T01170106
KFZY 221108Z AUTO 00000KT 1 3/4SM BR CLR 12/11 A3013 RMK AO2 VIS 3/4V4 T01170111
KFZY 221054Z AUTO 00000KT 2 1/2SM BR CLR 12/11 A3013 RMK AO2 SLP201 T01170111
KFZY 221049Z AUTO 00000KT 2SM BR CLR 12/11 A3013 RMK AO2
KFZY 221028Z AUTO 00000KT 3SM BR CLR 12/11 A3012 RMK AO2 T01170111
KFZY 221023Z AUTO 00000KT 1 1/4SM BR CLR 12/11 A3012 RMK AO2 T01170106
KFZY 221019Z AUTO 00000KT 1/2SM FG CLR 11/11 A3012 RMK AO2 T01110106
KFZY 221012Z AUTO 00000KT 1SM BR CLR 11/11 A3012 RMK AO2 T01060106
KFZY 220954Z AUTO 00000KT 4SM BR CLR 12/11 A3012 RMK AO2 SLP198 T01220111
KFZY 220908Z AUTO 00000KT 4SM BR CLR 13/12 A3012 RMK AO2 T01280122
KFZY 220854Z AUTO 00000KT 2 1/2SM BR CLR 12/12 A3011 RMK AO2 VIS 1 1/4V4 SLP195 T01220117 50002
KFZY 220838Z AUTO 00000KT 3SM BR CLR 12/12 A3011 RMK AO2 T01220117
KFZY 220803Z AUTO 00000KT 2SM BR CLR 13/12 A3011 RMK AO2 T01280122
KFZY 220754Z AUTO 00000KT 1SM BR CLR 12/12 A3011 RMK AO2 VIS 1/4V4 SLP196 T01220122
KFZY 220752Z AUTO 00000KT 1 1/4SM BR CLR 13/12 A3011 RMK AO2 VIS 1/4V5
KFZY 220749Z AUTO 00000KT 3SM BR CLR 13/12 A3011 RMK AO2
KFZY 220732Z AUTO 00000KT 2SM BR CLR 13/12 A3011 RMK AO2 VIS 3/4V4 T01280117
KFZY 220719Z AUTO 00000KT 1 3/4SM BR CLR 13/12 A3011 RMK AO2 VIS 3/4V3 T01280122
KFZY 220705Z AUTO 00000KT 1/4SM FG CLR 13/12 A3010 RMK AO2 T01280122
KFZY 220654Z AUTO 00000KT 3/4SM BR VV002 13/12 A3011 RMK AO2 SLP193 T01280122
KFZY 220635Z AUTO 00000KT 1/4SM FG VV002 13/12 A3011 RMK AO2 T01330122
KFZY 220554Z AUTO 00000KT 1/4SM FG CLR 14/14 A3011 RMK AO2 SLP194 T01390139 10206 20133 52001
KFZY 220532Z AUTO 00000KT 1/4SM FG CLR 14/13 A3011 RMK AO2 T01390133
KFZY 220525Z AUTO 00000KT 1SM BR CLR 14/13 A3011 RMK AO2 T01440133
KFZY 220516Z AUTO 00000KT 2SM BR CLR 14/13 A3011 RMK AO2 T01440133